Time;durP1;ratioP1;P1;durP2;ratioP2;P2;SDS_P1;SDS_P2;PMS_P1;PMS_P2;Temp;Humidity;BMP_temperature;BMP_pressure;BME280_temperature;BME280_humidity;BME280_pressure;Samples;Min_cycle;Max_cycle;Signal;HPM_P1;HPM_P2
2022/08/29 00:01:17;;;;;;;12.83;8.77;;;;;;;21.19;68.10;97002.91;5085929;28;20232;-74
2022/08/29 00:03:44;;;;;;;11.03;8.20;;;;;;;21.03;69.11;96997.34;5086466;28;20213;-75
2022/08/29 00:06:12;;;;;;;11.00;8.33;;;;;;;20.83;69.72;96992.97;5085170;28;20233;-78
2022/08/29 00:08:39;;;;;;;14.60;8.10;;;;;;;20.83;69.70;96985.06;5084572;28;20218;-75
2022/08/29 00:11:06;;;;;;;15.50;8.67;;;;;;;20.92;69.50;96990.34;5086826;28;20234;-79
2022/08/29 00:13:34;;;;;;;12.20;8.63;;;;;;;20.94;69.13;96988.41;5085566;28;20184;-76
2022/08/29 00:16:02;;;;;;;13.57;7.87;;;;;;;21.16;68.56;96983.91;5086912;28;20849;-76
2022/08/29 00:18:29;;;;;;;17.10;9.10;;;;;;;21.32;68.13;96981.56;5085988;28;20610;-76
2022/08/29 00:20:57;;;;;;;14.87;7.47;;;;;;;21.58;66.68;96982.69;5086680;28;20196;-73
2022/08/29 00:23:24;;;;;;;13.20;7.43;;;;;;;21.84;66.39;96979.38;5085290;28;20374;-74
2022/08/29 00:25:51;;;;;;;13.73;7.50;;;;;;;21.97;64.77;96984.34;5086056;28;20311;-76
2022/08/29 00:28:18;;;;;;;14.33;7.73;;;;;;;22.13;64.47;96981.97;5085520;28;20208;-74
2022/08/29 00:30:45;;;;;;;13.77;8.23;;;;;;;21.95;65.27;96986.28;5085872;28;20221;-74
2022/08/29 00:33:13;;;;;;;11.53;7.73;;;;;;;21.63;65.63;96985.75;5085397;28;20273;-74
2022/08/29 00:35:41;;;;;;;13.27;8.60;;;;;;;21.54;66.60;96991.84;5085536;28;20189;-79
2022/08/29 00:38:12;;;;;;;15.37;8.20;;;;;;;21.44;66.86;96983.09;5086605;28;20200;-75
2022/08/29 00:40:45;;;;;;;18.73;8.67;;;;;;;21.50;66.67;96982.56;5085080;28;20199;-77
2022/08/29 00:43:36;;;;;;;12.60;7.90;;;;;;;21.70;66.23;96981.59;5085970;28;20204;-76
2022/08/29 00:46:41;;;;;;;11.43;7.33;;;;;;;21.78;65.57;96981.72;5086616;28;20185;-76
2022/08/29 00:49:20;;;;;;;16.97;8.40;;;;;;;21.80;65.27;96982.41;5086006;28;20290;-79
2022/08/29 00:51:48;;;;;;;10.37;7.30;;;;;;;21.67;65.60;96973.97;5085662;28;20201;-80
2022/08/29 00:54:17;;;;;;;16.30;8.30;;;;;;;21.70;65.61;96976.31;5088214;28;20193;-86
2022/08/29 00:56:45;;;;;;;15.70;8.03;;;;;;;21.47;66.09;96981.06;5087687;28;20618;-78
2022/08/29 00:59:30;;;;;;;13.60;7.53;;;;;;;21.37;66.54;96984.66;5090388;28;20678;-79
2022/08/29 01:01:58;;;;;;;13.93;7.13;;;;;;;21.33;67.04;96988.53;5089453;28;20745;-79
2022/08/29 01:04:26;;;;;;;16.13;7.23;;;;;;;21.24;67.10;96981.44;5089905;28;20224;-85
2022/08/29 01:06:53;;;;;;;11.70;8.03;;;;;;;21.23;67.19;96971.84;5090042;28;20276;-75
2022/08/29 01:09:24;;;;;;;12.10;8.07;;;;;;;21.18;67.36;96972.28;5088935;28;20188;-80
2022/08/29 01:14:46;;;;;;;13.77;7.60;;;;;;;21.26;67.23;96988.22;5088834;28;20302;-83
2022/08/29 01:17:19;;;;;;;10.70;7.10;;;;;;;21.27;67.14;96983.81;5089874;28;20633;-82
2022/08/29 01:19:59;;;;;;;15.53;7.50;;;;;;;21.41;66.47;96980.75;5089718;28;20238;-79
2022/08/29 01:22:59;;;;;;;10.93;7.37;;;;;;;21.30;66.80;96988.78;5088879;28;20932;-75
2022/08/29 01:25:33;;;;;;;12.47;7.00;;;;;;;21.39;66.50;96991.41;5089797;28;20220;-79
2022/08/29 01:28:22;;;;;;;15.60;7.20;;;;;;;21.64;65.87;96992.66;5087606;28;20213;-77
2022/08/29 01:31:10;;;;;;;14.97;7.73;;;;;;;21.57;65.70;96988.94;5087429;28;20277;-74
2022/08/29 01:33:45;;;;;;;15.67;7.93;;;;;;;21.69;65.44;96983.41;5089868;28;20190;-75
2022/08/29 01:36:22;;;;;;;11.23;7.43;;;;;;;21.69;65.37;96983.41;5088411;28;20695;-77
2022/08/29 01:38:49;;;;;;;13.33;7.87;;;;;;;21.89;65.33;96986.88;5088195;28;20183;-78
2022/08/29 01:41:20;;;;;;;10.40;6.73;;;;;;;21.98;64.37;96993.94;5071561;28;20206;-79
2022/08/29 01:43:51;;;;;;;14.60;7.50;;;;;;;21.95;64.26;96980.22;5088571;28;20276;-74
2022/08/29 01:46:22;;;;;;;12.47;7.73;;;;;;;22.08;63.90;96976.28;5089153;28;20208;-74
2022/08/29 01:48:50;;;;;;;15.03;7.20;;;;;;;22.02;64.08;96982.13;5087880;28;20241;-79
2022/08/29 01:51:17;;;;;;;9.87;7.70;;;;;;;22.13;64.49;96989.06;5089520;28;20641;-78
2022/08/29 01:53:46;;;;;;;13.17;7.03;;;;;;;22.14;63.60;96985.44;5088047;28;20661;-75
2022/08/29 01:56:17;;;;;;;11.63;7.10;;;;;;;21.82;64.51;96985.78;5089022;28;20250;-77
2022/08/29 01:58:48;;;;;;;11.47;7.77;;;;;;;21.52;65.60;96993.78;5088921;28;20297;-78
2022/08/29 02:01:19;;;;;;;11.97;7.50;;;;;;;21.30;66.23;96996.69;5086860;28;20248;-76
2022/08/29 02:03:49;;;;;;;9.60;7.60;;;;;;;21.18;66.87;96996.00;5089107;28;20686;-76
2022/08/29 02:06:16;;;;;;;13.07;7.93;;;;;;;21.03;67.40;96987.66;5085813;28;20257;-82
2022/08/29 02:08:44;;;;;;;12.30;7.20;;;;;;;21.05;67.56;96990.97;5088974;28;20239;-77
2022/08/29 02:11:15;;;;;;;12.40;7.70;;;;;;;20.85;68.53;96985.75;5087864;28;20275;-75
2022/08/29 02:13:46;;;;;;;13.33;8.03;;;;;;;20.87;68.23;96986.47;5088611;28;20202;-75
2022/08/29 02:16:14;;;;;;;13.13;10.00;;;;;;;21.10;67.95;96987.94;5088790;28;20182;-75
2022/08/29 02:18:42;;;;;;;10.77;6.77;;;;;;;21.24;67.46;96990.19;5086408;28;20196;-75
2022/08/29 02:21:12;;;;;;;10.97;7.93;;;;;;;21.44;66.05;96985.75;5088834;28;20187;-75
2022/08/29 02:23:40;;;;;;;11.73;7.50;;;;;;;21.65;65.84;96987.28;5087482;28;20193;-76
2022/08/29 02:26:08;;;;;;;14.43;7.47;;;;;;;21.60;65.56;96991.28;5088702;28;20225;-76
2022/08/29 02:28:37;;;;;;;10.60;7.33;;;;;;;21.59;65.00;96973.81;5086243;28;20190;-78
2022/08/29 02:31:04;;;;;;;13.73;7.03;;;;;;;21.72;64.86;96995.47;5087243;28;20297;-75
2022/08/29 02:33:36;;;;;;;10.43;7.40;;;;;;;21.40;65.35;96987.00;5088494;28;20287;-76
2022/08/29 02:36:05;;;;;;;13.43;7.83;;;;;;;21.34;66.46;96998.06;5086090;28;20222;-75
2022/08/29 02:38:33;;;;;;;13.03;7.73;;;;;;;21.41;65.71;97001.84;5088701;28;20698;-75
2022/08/29 02:41:01;;;;;;;14.27;7.90;;;;;;;21.48;65.86;97009.06;5087460;28;20197;-81
2022/08/29 02:43:29;;;;;;;11.83;7.13;;;;;;;21.48;65.45;96995.03;5088773;28;20197;-78
2022/08/29 02:45:56;;;;;;;13.33;7.10;;;;;;;21.46;65.84;97000.44;5089555;28;20279;-78
2022/08/29 02:48:24;;;;;;;8.70;6.97;;;;;;;21.37;65.75;97003.91;5070213;28;20193;-75
2022/08/29 02:50:54;;;;;;;15.60;8.77;;;;;;;21.18;66.27;97005.69;5088495;28;20262;-79
2022/08/29 02:53:24;;;;;;;16.00;7.20;;;;;;;21.13;66.65;97002.63;5085674;28;20221;-77
2022/08/29 02:55:53;;;;;;;11.13;8.30;;;;;;;20.96;66.90;97002.28;5070033;28;20560;-75
2022/08/29 02:58:22;;;;;;;14.07;8.37;;;;;;;20.69;67.69;97004.66;5087091;28;20691;-81
2022/08/29 03:00:49;;;;;;;15.17;8.53;;;;;;;20.36;68.86;97004.94;5088456;28;20731;-76
2022/08/29 03:03:19;;;;;;;13.97;7.87;;;;;;;20.36;69.09;97007.56;5086261;28;20181;-81
2022/08/29 03:05:46;;;;;;;17.50;8.27;;;;;;;20.41;68.72;97010.66;5087713;28;20725;-74
2022/08/29 03:08:14;;;;;;;12.57;8.00;;;;;;;20.33;68.55;96999.97;5087910;28;20238;-80
2022/08/29 03:10:42;;;;;;;11.83;7.57;;;;;;;20.51;68.24;97016.78;5086907;28;20697;-77
2022/08/29 03:13:10;;;;;;;18.77;8.37;;;;;;;20.38;68.39;97021.44;5086674;28;20735;-75
2022/08/29 03:15:39;;;;;;;12.20;7.83;;;;;;;20.30;68.65;97021.25;5086449;28;20632;-79
2022/08/29 03:18:06;;;;;;;18.87;8.37;;;;;;;20.26;68.74;97027.72;5087335;28;20212;-74
2022/08/29 03:20:36;;;;;;;11.23;7.47;;;;;;;20.40;67.95;97030.06;5086669;28;20580;-75
2022/08/29 03:23:04;;;;;;;11.50;7.57;;;;;;;20.50;67.45;97028.28;5087424;28;20691;-74
2022/08/29 03:25:34;;;;;;;16.53;7.80;;;;;;;20.73;67.51;97021.88;5087484;28;20222;-82
2022/08/29 03:28:02;;;;;;;13.10;8.10;;;;;;;20.93;66.61;97031.53;5069558;28;20200;-74
2022/08/29 03:30:30;;;;;;;13.23;8.63;;;;;;;21.02;65.87;97029.88;5085990;28;20193;-75
2022/08/29 03:32:57;;;;;;;10.03;8.17;;;;;;;20.95;65.57;97032.22;5075574;28;20293;-79
2022/08/29 03:35:24;;;;;;;14.13;7.73;;;;;;;20.96;65.65;97030.41;5078657;28;20283;-76
2022/08/29 03:37:54;;;;;;;16.17;8.43;;;;;;;20.98;65.29;97031.09;5068546;28;20282;-79
2022/08/29 03:40:22;;;;;;;12.33;8.23;;;;;;;20.96;65.28;97025.13;5087322;28;20276;-80
2022/08/29 03:42:50;;;;;;;15.77;7.53;;;;;;;21.08;65.13;97031.19;5073990;28;20212;-79
2022/08/29 03:45:19;;;;;;;17.37;7.80;;;;;;;21.08;64.29;97025.91;5085637;28;20224;-79
2022/08/29 03:47:47;;;;;;;12.13;7.53;;;;;;;21.08;64.08;97027.56;5087268;28;20204;-81
2022/08/29 03:50:16;;;;;;;14.70;7.23;;;;;;;21.31;64.32;97032.63;5084957;28;20569;-84
2022/08/29 03:52:46;;;;;;;13.60;8.30;;;;;;;21.28;64.07;97033.72;5087382;28;20273;-81
2022/08/29 03:55:14;;;;;;;16.77;7.73;;;;;;;21.47;63.36;97038.19;5082905;28;20578;-81
2022/08/29 03:57:43;;;;;;;42.50;8.90;;;;;;;21.40;63.17;97037.06;5076208;28;20794;-78
2022/08/29 04:00:15;;;;;;;11.87;7.73;;;;;;;21.27;63.65;97032.03;5070340;28;20630;-79
2022/08/29 04:02:44;;;;;;;15.87;7.30;;;;;;;21.33;63.68;97042.03;5065462;28;20283;-75
2022/08/29 04:05:13;;;;;;;12.07;6.87;;;;;;;21.26;63.68;97037.44;5067022;28;20229;-80
2022/08/29 04:07:50;;;;;;;15.13;8.33;;;;;;;21.30;63.98;97047.59;5065471;28;20916;-79
2022/08/29 04:10:19;;;;;;;10.53;8.20;;;;;;;21.50;63.87;97046.63;5066687;28;20194;-81
2022/08/29 04:13:26;;;;;;;16.17;9.17;;;;;;;21.65;63.18;97053.19;5066256;28;20187;-75
2022/08/29 04:16:50;;;;;;;18.13;8.07;;;;;;;21.72;62.69;97050.84;5065213;28;20194;-76
2022/08/29 04:20:10;;;;;;;15.70;8.23;;;;;;;21.82;62.44;97049.06;5063554;28;20692;-75
2022/08/29 04:23:31;;;;;;;14.10;8.83;;;;;;;21.67;62.68;97043.34;5064388;28;20623;-79
2022/08/29 04:26:51;;;;;;;15.13;8.17;;;;;;;21.62;62.84;97047.34;5064556;28;20709;-78
2022/08/29 04:30:12;;;;;;;11.07;8.10;;;;;;;21.14;64.38;97056.97;5066947;28;20218;-78
2022/08/29 04:33:33;;;;;;;11.73;8.27;;;;;;;20.82;65.64;97051.84;5069359;28;20191;-75
2022/08/29 04:36:53;;;;;;;11.50;8.20;;;;;;;20.61;66.43;97059.78;5069960;28;20194;-76
2022/08/29 04:40:16;;;;;;;13.40;9.20;;;;;;;20.67;66.53;97059.25;5070107;28;20730;-75
2022/08/29 04:43:38;;;;;;;16.17;8.90;;;;;;;20.69;66.53;97064.41;5069110;28;20281;-76
2022/08/29 04:46:59;;;;;;;12.87;9.33;;;;;;;20.41;67.61;97060.63;5068570;28;20298;-75
2022/08/29 04:50:19;;;;;;;17.80;8.60;;;;;;;20.33;67.48;97052.56;5069448;28;20188;-79
2022/08/29 04:53:40;;;;;;;14.87;8.77;;;;;;;20.57;67.16;97057.53;5069985;28;20320;-80
2022/08/29 04:57:02;;;;;;;14.67;8.87;;;;;;;21.07;65.60;97059.31;5067634;28;20186;-80
2022/08/29 05:00:23;;;;;;;13.90;8.60;;;;;;;21.12;65.46;97066.81;5068789;28;20243;-77
2022/08/29 05:03:44;;;;;;;14.53;8.63;;;;;;;21.11;65.86;97058.06;5066604;28;20339;-75
2022/08/29 05:07:05;;;;;;;12.63;8.57;;;;;;;21.23;65.14;97066.69;5069324;28;20219;-78
2022/08/29 05:10:25;;;;;;;14.13;8.33;;;;;;;21.42;64.97;97058.81;5069214;28;20212;-75
2022/08/29 05:13:46;;;;;;;12.67;7.80;;;;;;;21.40;64.63;97048.44;5068020;28;20295;-74
2022/08/29 05:17:06;;;;;;;15.43;8.00;;;;;;;21.47;64.81;97054.00;5065925;28;20243;-77
2022/08/29 05:20:27;;;;;;;14.23;8.97;;;;;;;21.84;64.53;97055.03;5068734;28;20185;-80
2022/08/29 05:23:48;;;;;;;14.67;8.40;;;;;;;22.03;63.80;97057.63;5069015;28;20251;-75
2022/08/29 05:27:08;;;;;;;11.90;9.00;;;;;;;22.32;62.54;97054.97;5066659;28;20250;-75
2022/08/29 05:30:30;;;;;;;15.20;9.43;;;;;;;22.53;61.88;97056.44;5067596;28;20282;-76
2022/08/29 05:33:50;;;;;;;23.47;9.10;;;;;;;22.56;62.24;97055.34;5067863;28;20178;-75
2022/08/29 05:37:11;;;;;;;14.23;8.80;;;;;;;22.64;62.15;97051.03;5068981;28;20195;-76
2022/08/29 05:40:32;;;;;;;15.57;9.67;;;;;;;22.92;61.87;97053.69;5068505;28;20215;-77
2022/08/29 05:43:53;;;;;;;12.60;9.30;;;;;;;23.31;60.76;97055.16;5065562;28;20195;-81
2022/08/29 05:47:13;;;;;;;21.00;9.47;;;;;;;23.80;59.03;97062.66;5067411;28;20217;-80
2022/08/29 05:50:34;;;;;;;18.53;9.10;;;;;;;24.01;57.96;97051.75;5068405;28;20216;-80
2022/08/29 05:53:55;;;;;;;12.73;7.43;;;;;;;24.14;56.76;97058.38;5068786;28;20204;-78
2022/08/29 05:57:15;;;;;;;18.00;7.73;;;;;;;24.07;56.77;97057.31;5065524;28;20259;-78
2022/08/29 06:00:36;;;;;;;11.43;7.83;;;;;;;24.48;56.41;97062.94;5064691;28;20225;-79
2022/08/29 06:03:57;;;;;;;12.63;7.80;;;;;;;24.79;54.68;97061.50;5067855;28;20209;-79
2022/08/29 06:07:17;;;;;;;12.97;7.30;;;;;;;25.14;54.63;97057.84;5066358;28;20229;-79
2022/08/29 06:10:38;;;;;;;16.03;7.40;;;;;;;25.41;53.81;97060.31;5066166;28;20615;-77
2022/08/29 06:13:59;;;;;;;17.73;8.00;;;;;;;25.43;51.65;97059.13;5064754;28;20203;-78
2022/08/29 06:17:20;;;;;;;11.77;7.03;;;;;;;25.60;52.54;97057.34;5067223;28;20189;-78
2022/08/29 06:20:42;;;;;;;14.80;6.63;;;;;;;25.86;51.16;97065.22;5067304;28;20227;-80
2022/08/29 06:24:03;;;;;;;12.53;7.00;;;;;;;25.92;51.02;97061.91;5051893;28;20210;-76
2022/08/29 06:27:25;;;;;;;13.10;7.40;;;;;;;25.84;50.77;97068.03;5067017;28;20228;-81
2022/08/29 06:30:47;;;;;;;13.57;7.37;;;;;;;25.79;51.65;97068.53;5066398;28;20549;-81
2022/08/29 06:34:11;;;;;;;11.57;6.93;;;;;;;25.83;52.32;97066.38;5066328;28;20749;-79
2022/08/29 06:37:32;;;;;;;18.27;6.60;;;;;;;26.07;50.30;97066.41;5065800;28;20696;-77
2022/08/29 06:40:53;;;;;;;14.07;7.50;;;;;;;26.26;51.13;97067.91;5064665;28;20247;-81
2022/08/29 06:44:14;;;;;;;17.50;7.40;;;;;;;26.67;49.04;97066.88;5063476;28;20274;-82
2022/08/29 06:47:34;;;;;;;13.33;6.70;;;;;;;27.07;47.37;97076.59;5063581;28;20217;-76
2022/08/29 06:50:55;;;;;;;12.07;7.20;;;;;;;27.25;47.16;97075.38;5065453;28;20235;-79
2022/08/29 06:54:16;;;;;;;16.40;7.23;;;;;;;27.44;46.41;97076.00;5066791;28;20189;-79
2022/08/29 06:57:41;;;;;;;14.73;6.87;;;;;;;27.38;46.47;97067.72;5066204;28;20191;-75
2022/08/29 07:01:02;;;;;;;14.30;8.37;;;;;;;27.61;45.54;97075.75;5063427;28;20197;-81
2022/08/29 07:04:23;;;;;;;13.73;7.57;;;;;;;27.39;46.44;97082.66;5049703;28;20181;-78
2022/08/29 07:07:45;;;;;;;17.43;7.20;;;;;;;27.62;45.33;97073.91;5066918;28;20335;-78
2022/08/29 07:11:05;;;;;;;22.10;7.73;;;;;;;28.01;44.36;97085.31;5067157;28;20249;-78
2022/08/29 07:14:26;;;;;;;15.83;8.27;;;;;;;28.47;44.71;97086.13;5063105;28;20193;-83
2022/08/29 07:17:48;;;;;;;14.10;6.77;;;;;;;28.81;43.12;97087.34;5063415;28;20228;-76
2022/08/29 07:21:08;;;;;;;11.67;6.57;;;;;;;28.89;42.53;97089.91;5066754;28;20197;-76
2022/08/29 07:24:29;;;;;;;12.13;5.63;;;;;;;28.43;41.53;97074.19;5064299;28;20243;-83
2022/08/29 07:27:50;;;;;;;13.87;6.70;;;;;;;28.25;42.65;97076.34;5065457;28;20185;-74
2022/08/29 07:31:11;;;;;;;14.17;6.67;;;;;;;28.30;42.88;97080.13;5064994;28;20326;-79
2022/08/29 07:34:32;;;;;;;11.87;6.13;;;;;;;28.32;42.42;97082.59;5065782;28;20585;-76
2022/08/29 07:37:56;;;;;;;15.80;7.37;;;;;;;28.07;42.54;97079.28;5065879;28;20573;-77
2022/08/29 07:41:16;;;;;;;14.83;6.33;;;;;;;28.13;43.73;97081.28;5063615;28;20189;-79
2022/08/29 07:44:37;;;;;;;12.97;6.90;;;;;;;27.89;43.95;97084.03;5064863;28;20225;-76
2022/08/29 07:47:57;;;;;;;10.20;6.10;;;;;;;28.05;42.84;97087.47;5063444;28;20319;-76
2022/08/29 07:51:20;;;;;;;14.50;7.10;;;;;;;28.09;41.77;97080.78;5065780;28;20193;-76
2022/08/29 07:54:41;;;;;;;14.90;6.07;;;;;;;28.42;40.79;97076.00;5049651;28;20185;-77
2022/08/29 07:58:03;;;;;;;14.57;7.40;;;;;;;28.70;40.57;97071.81;5065415;28;20196;-80
2022/08/29 08:01:24;;;;;;;15.53;6.77;;;;;;;28.78;39.89;97074.38;5062856;28;20202;-81
2022/08/29 08:04:46;;;;;;;10.73;5.10;;;;;;;29.05;39.01;97070.25;5066958;28;20615;-77
2022/08/29 08:08:08;;;;;;;10.93;5.23;;;;;;;29.19;38.57;97071.28;5070301;28;20189;-79
2022/08/29 08:11:29;;;;;;;11.43;5.40;;;;;;;29.10;39.52;97064.38;5070031;28;20181;-75
2022/08/29 08:14:49;;;;;;;17.17;5.80;;;;;;;28.83;38.09;97066.66;5068869;28;20193;-77
2022/08/29 08:18:11;;;;;;;11.37;7.53;;;;;;;29.22;38.19;97057.59;5069546;28;20692;-78
2022/08/29 08:21:33;;;;;;;10.40;5.53;;;;;;;29.10;38.24;97061.72;5070274;28;20223;-77
2022/08/29 08:24:55;;;;;;;18.03;6.10;;;;;;;29.71;37.19;97062.09;5070090;28;20189;-82
2022/08/29 08:28:17;;;;;;;14.80;7.37;;;;;;;30.14;36.79;97068.31;5066904;28;20215;-79
2022/08/29 08:31:38;;;;;;;12.00;5.90;;;;;;;30.36;36.07;97059.31;5066825;28;20191;-81
2022/08/29 08:34:58;;;;;;;14.40;7.20;;;;;;;30.54;36.33;97065.00;5067614;28;20682;-79
2022/08/29 08:38:20;;;;;;;13.87;6.90;;;;;;;30.63;36.65;97063.00;5069670;28;20196;-79
2022/08/29 08:41:48;;;;;;;11.60;6.50;;;;;;;29.99;38.02;97059.53;5066891;28;20564;-79
2022/08/29 08:45:28;;;;;;;17.03;6.27;;;;;;;30.51;37.26;97046.69;5067780;28;20352;-78
2022/08/29 08:48:52;;;;;;;17.77;7.03;;;;;;;30.88;36.49;97055.41;5066188;28;20270;-77
2022/08/29 08:52:13;;;;;;;17.80;7.40;;;;;;;31.24;36.21;97053.34;5067201;28;20200;-80
2022/08/29 08:55:40;;;;;;;19.57;7.13;;;;;;;30.79;37.45;97056.56;5067517;28;20268;-75
2022/08/29 08:59:10;;;;;;;15.90;7.10;;;;;;;30.97;37.27;97051.56;5066831;28;20224;-78
2022/08/29 09:02:25;;;;;;;20.10;7.50;;;;;;;31.21;36.90;97051.91;5035060;28;20229;-79
2022/08/29 09:05:22;;;;;;;15.47;6.70;;;;;;;31.29;37.51;97048.22;5066757;28;20224;-78
2022/08/29 09:08:12;;;;;;;14.93;7.03;;;;;;;31.30;36.12;97050.69;5067074;28;20242;-78
2022/08/29 09:10:52;;;;;;;16.83;6.83;;;;;;;31.51;36.43;97038.25;5067529;28;20665;-80
2022/08/29 09:13:52;;;;;;;11.37;6.53;;;;;;;31.58;36.51;97039.94;5068766;28;20189;-81
2022/08/29 09:17:14;;;;;;;20.73;8.60;;;;;;;31.71;36.59;97034.63;5052154;28;20199;-76
2022/08/29 09:20:35;;;;;;;17.00;7.32;;;;;;;31.71;36.71;97029.25;5065283;28;20722;-76
2022/08/29 09:24:01;;;;;;;16.50;7.50;;;;;;;31.66;36.21;97029.03;5034184;28;20212;-74
2022/08/29 09:27:22;;;;;;;21.83;6.77;;;;;;;31.31;37.12;97025.59;5068922;28;20672;-78
2022/08/29 09:30:49;;;;;;;17.27;8.67;;;;;;;31.72;37.21;97025.53;5068847;28;20182;-79
2022/08/29 09:34:22;;;;;;;16.63;6.60;;;;;;;31.60;37.22;97019.13;5065991;28;20212;-79
2022/08/29 09:37:48;;;;;;;12.05;6.90;;;;;;;31.52;37.97;97027.34;5066911;28;20578;-79
2022/08/29 09:40:50;;;;;;;16.80;8.47;;;;;;;31.71;36.66;97020.41;5067031;28;20250;-77
2022/08/29 09:43:37;;;;;;;14.23;7.63;;;;;;;31.79;36.63;97025.56;5068328;28;20793;-76
2022/08/29 09:46:38;;;;;;;16.77;7.30;;;;;;;31.46;37.19;97017.44;5068259;28;20236;-80
2022/08/29 09:49:59;;;;;;;17.37;6.10;;;;;;;31.37;36.89;97017.78;5066954;28;20187;-77
2022/08/29 09:53:19;;;;;;;14.48;6.55;;;;;;;31.60;36.79;97019.13;5067622;28;20190;-76
2022/08/29 09:56:47;;;;;;;13.93;6.10;;;;;;;31.81;35.14;97027.03;5049346;28;20197;-77
2022/08/29 10:00:06;;;;;;;17.08;7.40;;;;;;;32.18;35.40;97019.47;5051363;28;20361;-77
2022/08/29 10:03:27;;;;;;;16.67;8.67;;;;;;;32.38;34.49;97018.44;5065116;28;20185;-78
2022/08/29 10:06:48;;;;;;;16.55;6.82;;;;;;;32.41;35.80;97026.09;5065138;28;20221;-79
2022/08/29 10:10:11;;;;;;;13.18;6.65;;;;;;;32.12;35.51;97018.44;5065842;28;20279;-79
2022/08/29 10:13:33;;;;;;;11.07;6.28;;;;;;;31.96;36.09;97021.50;5066089;28;20201;-79
2022/08/29 10:16:26;;;;;;;17.23;7.30;;;;;;;32.16;35.34;97024.19;5066689;28;21000;-76
2022/08/29 10:19:51;;;;;;;12.73;7.20;;;;;;;32.45;34.84;97016.59;5067299;28;20205;-80
2022/08/29 10:23:15;;;;;;;20.38;7.05;;;;;;;32.80;33.99;97006.47;5067734;28;20224;-79
2022/08/29 10:26:36;;;;;;;16.55;6.80;;;;;;;32.83;33.90;97000.66;5067453;28;20707;-81
2022/08/29 10:29:56;;;;;;;14.95;6.78;;;;;;;33.17;32.26;96999.56;5066309;28;20226;-80
2022/08/29 10:33:03;;;;;;;14.32;6.35;;;;;;;33.36;32.29;96996.81;5064119;28;20201;-81
2022/08/29 10:36:16;;;;;;;14.40;5.85;;;;;;;33.06;30.46;96998.34;5067878;28;20193;-77
2022/08/29 10:39:36;;;;;;;11.50;5.78;;;;;;;33.16;31.77;96996.06;5067499;28;20251;-81
2022/08/29 10:42:57;;;;;;;15.20;6.10;;;;;;;33.50;30.92;96987.69;5066074;28;20220;-76
2022/08/29 10:46:45;;;;;;;18.70;7.70;;;;;;;33.34;32.05;96996.22;5065580;28;20240;-79
2022/08/29 10:50:07;;;;;;;14.45;6.05;;;;;;;33.16;29.97;96997.94;5066760;28;20231;-82
2022/08/29 10:53:17;;;;;;;13.55;4.95;;;;;;;33.02;28.99;96999.81;5044665;28;20190;-77
2022/08/29 10:56:40;;;;;;;12.00;5.13;;;;;;;33.17;28.97;96986.16;5012973;28;20236;-78
2022/08/29 10:59:25;;;;;;;11.80;5.25;;;;;;;33.50;28.50;96984.16;5063663;28;20237;-76
2022/08/29 11:02:35;;;;;;;14.32;5.50;;;;;;;33.84;28.91;96977.56;5066880;28;20668;-78
2022/08/29 11:05:59;;;;;;;13.98;5.40;;;;;;;34.01;28.20;96978.69;5048653;28;20230;-80
2022/08/29 11:09:28;;;;;;;14.50;6.45;;;;;;;34.16;28.39;96971.97;5066543;28;20217;-82
2022/08/29 11:12:58;;;;;;;13.60;5.95;;;;;;;34.37;29.23;96970.75;5064615;28;20555;-81
2022/08/29 11:16:01;;;;;;;11.93;5.22;;;;;;;34.54;28.33;96968.34;5064211;28;20188;-78
2022/08/29 11:19:24;;;;;;;13.15;6.03;;;;;;;34.54;28.80;96968.34;5066925;28;20726;-77
2022/08/29 11:22:34;;;;;;;15.55;6.32;;;;;;;33.94;28.70;96961.78;5064563;28;20750;-83
2022/08/29 11:25:55;;;;;;;14.80;6.30;;;;;;;33.47;28.89;96982.69;5062854;28;20708;-78
2022/08/29 11:29:17;;;;;;;17.65;5.22;;;;;;;33.00;32.29;96968.84;5065577;28;20193;-78
2022/08/29 11:32:41;;;;;;;13.35;5.43;;;;;;;33.08;32.64;96953.34;5066352;28;20178;-79
2022/08/29 11:35:48;;;;;;;18.17;4.93;;;;;;;33.23;31.95;96948.53;5066709;28;20201;-83
2022/08/29 11:39:16;;;;;;;10.18;4.50;;;;;;;32.84;31.66;96964.75;5062747;28;20239;-82
2022/08/29 11:42:36;;;;;;;15.52;5.82;;;;;;;32.59;33.74;96966.47;5065282;28;20200;-78
2022/08/29 11:46:00;;;;;;;12.60;5.90;;;;;;;32.69;33.72;96956.13;5065430;28;20661;-79
2022/08/29 11:49:19;;;;;;;11.93;5.20;;;;;;;32.62;33.64;96923.94;5066678;28;20189;-82
2022/08/29 11:52:40;;;;;;;12.88;4.82;;;;;;;32.60;34.00;96963.56;5064327;28;20189;-81
2022/08/29 11:56:00;;;;;;;16.85;4.50;;;;;;;32.58;34.52;96959.47;5065100;28;20245;-80
2022/08/29 11:59:24;;;;;;;14.20;5.32;;;;;;;32.01;34.65;96960.91;5065864;28;20668;-75
2022/08/29 12:02:30;;;;;;;11.95;4.85;;;;;;;31.79;34.71;96948.72;5066401;28;20652;-76
2022/08/29 12:05:19;;;;;;;10.50;4.90;;;;;;;31.58;35.12;96943.50;5064649;28;20224;-77
2022/08/29 12:08:45;;;;;;;13.73;4.57;;;;;;;31.47;35.60;96945.97;5064873;28;20216;-76
2022/08/29 12:12:02;;;;;;;12.23;5.43;;;;;;;31.37;36.02;96934.81;5066101;28;20185;-81
2022/08/29 12:15:24;;;;;;;9.70;4.57;;;;;;;31.25;36.01;96939.91;5047449;28;20201;-75
2022/08/29 12:18:06;;;;;;;14.90;5.73;;;;;;;31.29;35.96;96947.34;5064452;28;20205;-76
2022/08/29 12:21:31;;;;;;;16.93;5.30;;;;;;;31.17;36.09;96940.09;5065009;28;20199;-77
2022/08/29 12:25:04;;;;;;;17.23;5.50;;;;;;;31.25;36.19;96935.38;5064067;28;20186;-75
2022/08/29 12:28:20;;;;;;;12.60;5.33;;;;;;;31.16;37.61;96930.41;5066197;28;20749;-78
2022/08/29 12:31:39;;;;;;;15.47;5.60;;;;;;;31.15;36.98;96934.94;5065906;28;20228;-77
2022/08/29 12:34:33;;;;;;;13.03;5.30;;;;;;;31.28;37.21;96924.25;5062973;28;20189;-77
2022/08/29 12:37:13;;;;;;;14.50;5.73;;;;;;;31.37;37.25;96935.59;5065673;28;20314;-75
2022/08/29 12:40:20;;;;;;;14.83;5.73;;;;;;;31.41;37.65;96933.41;5065743;28;20212;-76
2022/08/29 12:43:56;;;;;;;10.67;5.00;;;;;;;31.41;38.21;96923.50;5062832;28;20703;-75
2022/08/29 12:47:19;;;;;;;13.03;5.80;;;;;;;31.10;39.65;96932.03;5062565;28;20228;-75
2022/08/29 12:50:44;;;;;;;15.27;6.30;;;;;;;31.00;40.38;96931.56;5068951;28;20585;-76
2022/08/29 12:54:05;;;;;;;13.10;6.10;;;;;;;31.04;40.64;96930.16;5068890;28;20662;-79
2022/08/29 12:57:26;;;;;;;14.03;6.00;;;;;;;30.53;42.36;96932.34;5066990;28;20199;-76
2022/08/29 13:00:50;;;;;;;10.23;5.47;;;;;;;30.38;43.20;96934.31;5066363;28;20196;-75
2022/08/29 13:04:14;;;;;;;13.60;5.97;;;;;;;30.26;43.02;96932.34;5066852;28;20624;-80
2022/08/29 13:07:24;;;;;;;15.10;5.60;;;;;;;30.21;41.70;96924.91;5068120;28;20242;-82
2022/08/29 13:10:44;;;;;;;12.37;5.87;;;;;;;30.28;41.84;96925.78;5069414;28;20200;-77
2022/08/29 13:14:05;;;;;;;15.37;5.70;;;;;;;30.45;41.04;96913.81;5065819;28;20753;-81
2022/08/29 13:17:27;;;;;;;12.30;5.13;;;;;;;30.29;41.89;96921.28;5066495;28;20193;-79
2022/08/29 13:20:46;;;;;;;17.43;6.43;;;;;;;30.27;41.50;96925.97;5067072;28;20292;-77
2022/08/29 13:24:06;;;;;;;10.70;5.77;;;;;;;30.39;41.26;96922.59;5067350;28;20221;-80
2022/08/29 13:27:34;;;;;;;12.27;5.40;;;;;;;30.44;40.89;96913.97;5067794;28;20648;-76
2022/08/29 13:31:04;;;;;;;8.77;5.20;;;;;;;30.63;40.47;96923.97;5065776;28;20193;-80
2022/08/29 13:33:44;;;;;;;11.27;5.87;;;;;;;30.83;40.91;96916.06;5068700;28;20281;-83
2022/08/29 13:37:13;;;;;;;11.13;5.63;;;;;;;30.93;39.43;96911.19;5069281;28;20204;-76
2022/08/29 13:40:29;;;;;;;13.70;5.73;;;;;;;30.85;39.52;96906.00;5067912;28;20196;-82
2022/08/29 13:43:29;;;;;;;9.90;5.50;;;;;;;30.86;38.45;96907.66;5067382;28;20185;-79
2022/08/29 13:46:30;;;;;;;14.40;6.33;;;;;;;30.75;38.42;96905.53;5068849;28;20221;-83
2022/08/29 13:49:51;;;;;;;13.00;5.73;;;;;;;30.54;38.73;96899.22;5066204;28;20280;-77
2022/08/29 13:53:11;;;;;;;13.00;5.67;;;;;;;30.43;39.96;96891.78;5081202;28;20204;-76
2022/08/29 13:56:38;;;;;;;18.17;5.80;;;;;;;30.41;39.61;96877.78;5067455;28;20200;-79
2022/08/29 13:59:58;;;;;;;8.83;5.50;;;;;;;30.60;40.21;96881.59;5073892;28;20204;-79
2022/08/29 14:02:35;;;;;;;8.47;4.97;;;;;;;30.75;39.92;96881.47;5048875;28;20182;-80
2022/08/29 14:05:12;;;;;;;10.83;5.47;;;;;;;30.75;40.24;96865.41;5030854;28;20271;-81